createdAt,value
2023-01-18T00:00:53.402Z,-0.50
2023-01-18T00:03:21.708Z,-0.51
2023-01-18T00:05:49.866Z,-0.61
2023-01-18T00:08:18.987Z,-0.59
2023-01-18T00:10:47.372Z,-0.58
2023-01-18T00:13:17.093Z,-0.61
2023-01-18T00:15:45.427Z,-0.60
2023-01-18T00:18:13.439Z,-0.69
2023-01-18T00:20:41.322Z,-0.65
2023-01-18T00:23:09.205Z,-0.65
2023-01-18T00:25:37.991Z,-0.58
2023-01-18T00:28:06.368Z,-0.52
2023-01-18T00:30:35.712Z,-0.35
2023-01-18T00:33:03.632Z,-0.46
2023-01-18T00:35:32.221Z,-0.33
2023-01-18T00:38:00.196Z,-0.39
2023-01-18T00:40:30.246Z,-0.43
2023-01-18T00:43:15.714Z,-0.39
2023-01-18T00:45:45.105Z,-0.22
2023-01-18T00:48:13.495Z,-0.25
2023-01-18T00:50:41.583Z,-0.25
2023-01-18T00:53:09.712Z,-0.24
2023-01-18T00:55:37.769Z,-0.40
2023-01-18T00:58:05.893Z,-0.40
2023-01-18T01:00:33.988Z,-0.42
2023-01-18T01:03:03.588Z,-0.47
2023-01-18T01:05:48.838Z,-0.42
2023-01-18T01:08:18.045Z,-0.09
2023-01-18T01:10:47.344Z,-0.15
2023-01-18T01:13:34.232Z,-0.06
2023-01-18T01:16:24.022Z,-0.08
2023-01-18T01:19:11.455Z,-0.14
2023-01-18T01:21:57.947Z,-0.15
2023-01-18T01:24:43.701Z,0.03
2023-01-18T01:27:12.413Z,0.05
2023-01-18T01:29:40.549Z,-0.02
2023-01-18T01:32:08.746Z,-0.11
2023-01-18T01:34:38.295Z,-0.25
2023-01-18T01:37:07.081Z,-0.40
2023-01-18T01:39:35.076Z,-0.25
2023-01-18T01:42:03.008Z,-0.07
2023-01-18T01:44:55.817Z,-0.05
2023-01-18T01:47:41.787Z,-0.04
2023-01-18T01:50:20.045Z,-0.03
2023-01-18T01:52:48.852Z,0.04
2023-01-18T01:55:23.710Z,0.11
2023-01-18T01:57:57.103Z,0.21
2023-01-18T02:00:26.178Z,0.09
2023-01-18T02:02:59.276Z,0.16
2023-01-18T02:05:31.460Z,0.03
2023-01-18T02:08:02.677Z,0.05
2023-01-18T02:10:31.438Z,0.05
2023-01-18T02:13:01.116Z,-0.01
2023-01-18T02:15:36.831Z,-0.17
2023-01-18T02:18:15.637Z,-0.16
2023-01-18T02:23:59.363Z,-0.33
2023-01-18T02:27:02.228Z,-0.33
2023-01-18T02:29:49.637Z,-0.42
2023-01-18T02:32:27.887Z,-0.32
2023-01-18T02:35:02.437Z,-0.32
2023-01-18T02:37:41.235Z,-0.26
2023-01-18T02:40:17.287Z,-0.22
2023-01-18T02:43:04.084Z,-0.15
2023-01-18T02:45:53.577Z,-0.15
2023-01-18T02:48:23.637Z,-0.12
2023-01-18T02:50:52.680Z,0.04
2023-01-18T02:53:20.965Z,0.07
2023-01-18T02:55:55.014Z,0.07
2023-01-18T02:58:28.489Z,0.13
2023-01-18T03:01:02.610Z,0.15
2023-01-18T03:03:30.640Z,0.04
2023-01-18T03:06:01.906Z,-0.12
2023-01-18T03:08:36.416Z,-0.06
2023-01-18T03:11:07.690Z,-0.08
2023-01-18T03:13:48.450Z,-0.21
2023-01-18T03:16:23.345Z,-0.29
2023-01-18T03:19:02.406Z,-0.27
2023-01-18T03:21:38.882Z,-0.20
2023-01-18T03:24:09.259Z,-0.17
2023-01-18T03:26:41.819Z,-0.19
2023-01-18T03:29:28.963Z,-0.12
2023-01-18T03:32:20.681Z,0.04
2023-01-18T03:34:53.885Z,0.11
2023-01-18T03:37:28.033Z,0.11
2023-01-18T03:39:59.320Z,0.19
2023-01-18T03:42:30.441Z,0.25
2023-01-18T03:45:06.788Z,0.20
2023-01-18T03:47:36.609Z,0.06
2023-01-18T03:50:05.603Z,-0.01
2023-01-18T03:52:42.083Z,0.09
2023-01-18T03:55:16.815Z,0.18
2023-01-18T03:57:48.254Z,0.12
2023-01-18T04:00:18.088Z,-0.01
2023-01-18T04:02:50.135Z,-0.01
2023-01-18T04:05:18.883Z,0.32
2023-01-18T04:07:47.499Z,0.15
2023-01-18T04:10:16.373Z,0.14
2023-01-18T04:12:44.963Z,0.22
2023-01-18T04:15:13.393Z,0.13
2023-01-18T04:17:41.453Z,0.21
2023-01-18T04:20:12.181Z,0.31
2023-01-18T04:22:40.275Z,0.27
2023-01-18T04:25:08.784Z,0.21
2023-01-18T04:27:37.035Z,0.20
2023-01-18T04:30:06.378Z,0.23
2023-01-18T04:32:34.753Z,0.14
2023-01-18T04:35:02.926Z,0.01
2023-01-18T04:37:34.247Z,0.05
2023-01-18T04:40:02.628Z,0.21
2023-01-18T04:42:30.965Z,0.08
2023-01-18T04:44:59.944Z,0.02
2023-01-18T04:47:29.753Z,-0.02
2023-01-18T04:49:58.518Z,-0.06
2023-01-18T04:52:27.073Z,-0.17
2023-01-18T04:54:56.689Z,-0.05
2023-01-18T04:57:24.903Z,0.12
2023-01-18T04:59:53.378Z,0.07
2023-01-18T05:02:21.708Z,0.08
2023-01-18T05:04:49.985Z,0.17
2023-01-18T05:07:19.156Z,0.17
2023-01-18T05:09:47.691Z,0.10
2023-01-18T05:12:17.119Z,0.10
2023-01-18T05:14:45.373Z,0.11
2023-01-18T05:17:13.681Z,0.14
2023-01-18T05:19:41.735Z,0.17
2023-01-18T05:22:09.872Z,0.23
2023-01-18T05:24:37.874Z,0.14
2023-01-18T05:27:09.493Z,0.36
2023-01-18T05:29:39.563Z,0.35
2023-01-18T05:32:07.903Z,0.33
2023-01-18T05:34:35.898Z,0.36
2023-01-18T05:37:04.570Z,0.35
2023-01-18T05:39:32.485Z,0.34
2023-01-18T05:42:00.633Z,0.37
2023-01-18T05:44:29.016Z,0.43
2023-01-18T05:46:59.181Z,0.44
2023-01-18T05:49:27.327Z,0.36
2023-01-18T05:51:55.407Z,0.33
2023-01-18T05:54:23.783Z,0.32
2023-01-18T05:56:51.964Z,0.41
2023-01-18T05:59:20.233Z,0.39
2023-01-18T06:01:48.432Z,0.38
2023-01-18T06:04:18.453Z,0.42
2023-01-18T06:06:46.398Z,0.44
2023-01-18T06:09:14.774Z,0.33
2023-01-18T06:11:42.911Z,0.42
2023-01-18T06:14:11.251Z,0.38
2023-01-18T06:16:39.424Z,0.49
2023-01-18T06:19:07.489Z,0.48
2023-01-18T06:21:37.023Z,0.38
2023-01-18T06:24:05.923Z,0.31
2023-01-18T06:26:34.658Z,0.32
2023-01-18T06:29:03.564Z,0.36
2023-01-18T06:31:32.323Z,0.47
2023-01-18T06:34:00.697Z,0.47
2023-01-18T06:36:29.974Z,0.43
2023-01-18T06:38:59.299Z,0.43
2023-01-18T06:41:27.329Z,0.41
2023-01-18T06:43:55.812Z,0.44
2023-01-18T06:46:24.049Z,0.46
2023-01-18T06:48:52.288Z,0.47
2023-01-18T06:51:20.564Z,0.48
2023-01-18T06:53:49.875Z,0.47
2023-01-18T06:56:19.611Z,0.41
2023-01-18T06:58:48.127Z,0.42
2023-01-18T07:01:16.364Z,0.55
2023-01-18T07:03:44.788Z,0.56
2023-01-18T07:06:13.855Z,0.51
2023-01-18T07:08:42.379Z,0.60
2023-01-18T07:11:12.005Z,0.58
2023-01-18T07:13:43.571Z,0.43
2023-01-18T07:16:18.107Z,0.42
2023-01-18T07:18:46.916Z,0.46
2023-01-18T07:21:16.368Z,0.38
2023-01-18T07:23:45.405Z,0.44
2023-01-18T07:26:17.294Z,0.48
2023-01-18T07:28:47.795Z,0.51
2023-01-18T07:31:18.365Z,0.47
2023-01-18T07:33:46.543Z,0.33
2023-01-18T07:36:14.832Z,0.37
2023-01-18T07:38:42.868Z,0.39
2023-01-18T07:41:14.462Z,0.24
2023-01-18T07:43:44.694Z,0.09
2023-01-18T07:46:16.018Z,0.09
2023-01-18T07:48:44.954Z,0.12
2023-01-18T07:51:13.581Z,-0.15
2023-01-18T07:53:42.614Z,-0.37
2023-01-18T07:56:14.731Z,-0.38
2023-01-18T07:58:43.004Z,-0.41
2023-01-18T08:01:15.259Z,-0.57
2023-01-18T08:03:44.566Z,-0.58
2023-01-18T08:06:12.914Z,-0.40
2023-01-18T08:08:41.445Z,-0.34
2023-01-18T08:11:09.817Z,-0.41
2023-01-18T08:13:38.145Z,-0.30
2023-01-18T08:16:09.552Z,-0.25
2023-01-18T08:18:39.385Z,-0.39
2023-01-18T08:21:11.102Z,-0.60
2023-01-18T08:23:40.066Z,-0.51
2023-01-18T08:26:09.795Z,-0.40
2023-01-18T08:28:38.263Z,-0.43
2023-01-18T08:31:09.870Z,-0.30
2023-01-18T08:33:46.296Z,-0.24
2023-01-18T08:36:16.533Z,-0.13
2023-01-18T08:38:44.627Z,-0.19
2023-01-18T08:41:12.915Z,-0.19
2023-01-18T08:43:41.402Z,-0.22
2023-01-18T08:46:09.585Z,-0.24
2023-01-18T08:48:38.023Z,-0.20
2023-01-18T08:51:07.826Z,-0.24
2023-01-18T08:53:35.925Z,-0.27
2023-01-18T08:56:06.705Z,-0.30
2023-01-18T08:58:35.112Z,-0.27
2023-01-18T09:01:06.308Z,-0.26
2023-01-18T09:03:34.583Z,-0.14
2023-01-18T09:06:03.753Z,-0.13
2023-01-18T09:08:33.385Z,0.02
2023-01-18T09:11:03.633Z,0.00
2023-01-18T09:13:32.271Z,0.08
2023-01-18T09:16:01.308Z,0.06
2023-01-18T09:18:30.132Z,0.06
2023-01-18T09:20:58.291Z,0.03
2023-01-18T09:23:27.076Z,0.13
2023-01-18T09:26:04.799Z,0.31
2023-01-18T09:28:33.400Z,0.19
2023-01-18T09:31:02.413Z,0.21
2023-01-18T09:33:37.421Z,0.22
2023-01-18T09:36:09.968Z,0.29
2023-01-18T09:38:39.088Z,0.30
2023-01-18T09:41:18.474Z,0.22
2023-01-18T09:43:51.020Z,0.38
2023-01-18T09:46:21.976Z,0.22
2023-01-18T09:48:55.680Z,0.35
2023-01-18T09:51:28.713Z,0.40
2023-01-18T09:54:09.509Z,0.37
2023-01-18T09:56:46.156Z,0.41
2023-01-18T09:59:22.213Z,0.49
2023-01-18T10:01:52.876Z,0.39
2023-01-18T10:04:26.961Z,0.32
2023-01-18T10:06:58.108Z,0.26
2023-01-18T10:09:30.725Z,0.38
2023-01-18T10:12:03.174Z,0.40
2023-01-18T10:14:42.938Z,0.57
2023-01-18T10:17:18.089Z,0.56
2023-01-18T10:19:46.879Z,0.51
2023-01-18T10:22:22.917Z,0.51
2023-01-18T10:24:59.907Z,0.27
2023-01-18T10:27:39.189Z,0.27
2023-01-18T10:30:51.797Z,0.22
2023-01-18T10:33:24.482Z,0.22
2023-01-18T10:35:56.672Z,0.30
2023-01-18T10:38:28.502Z,0.26
2023-01-18T10:40:59.271Z,0.17
2023-01-18T10:43:31.910Z,0.05
2023-01-18T10:46:00.334Z,0.00
2023-01-18T10:48:32.283Z,-0.02
2023-01-18T10:51:02.403Z,-0.12
2023-01-18T10:53:32.885Z,-0.31
2023-01-18T10:56:04.198Z,-0.29
2023-01-18T10:58:39.163Z,-0.18
2023-01-18T11:01:14.383Z,-0.22
2023-01-18T11:03:47.777Z,-0.10
2023-01-18T11:06:17.211Z,-0.13
2023-01-18T11:08:45.581Z,-0.27
2023-01-18T11:11:20.052Z,-0.26
2023-01-18T11:13:51.775Z,-0.12
2023-01-18T11:16:22.257Z,-0.14
2023-01-18T11:18:59.627Z,-0.08
2023-01-18T11:21:33.222Z,-0.10
2023-01-18T11:24:08.139Z,-0.15
2023-01-18T11:26:36.663Z,-0.13
2023-01-18T11:29:08.218Z,-0.26
2023-01-18T11:31:47.141Z,-0.30
2023-01-18T11:34:26.525Z,-0.26
2023-01-18T11:37:01.192Z,-0.31
2023-01-18T11:39:31.820Z,-0.40
2023-01-18T11:42:23.832Z,-0.40
2023-01-18T11:45:03.090Z,-0.35
2023-01-18T11:47:40.654Z,-0.27
2023-01-18T11:50:22.468Z,-0.20
2023-01-18T11:52:55.366Z,-0.11
2023-01-18T11:55:32.359Z,-0.14
2023-01-18T11:58:01.862Z,-0.06
2023-01-18T12:00:44.047Z,0.12
2023-01-18T12:03:30.287Z,0.11
2023-01-18T12:06:05.017Z,0.25
2023-01-18T12:08:55.021Z,0.30
2023-01-18T12:11:46.915Z,0.37
2023-01-18T12:14:41.451Z,0.40
2023-01-18T12:17:25.450Z,0.35
2023-01-18T12:20:00.756Z,0.39
2023-01-18T12:23:09.203Z,0.10
2023-01-18T12:26:10.633Z,0.07
2023-01-18T12:28:55.462Z,0.15
2023-01-18T12:31:27.650Z,0.08
2023-01-18T12:34:05.871Z,0.08
2023-01-18T12:36:59.161Z,0.12
2023-01-18T12:39:45.384Z,0.08
2023-01-18T12:42:21.596Z,-0.02
2023-01-18T12:45:11.019Z,0.03
2023-01-18T12:47:41.030Z,0.13
2023-01-18T12:50:23.180Z,0.09
2023-01-18T12:52:56.599Z,-0.07
2023-01-18T12:55:26.756Z,0.02
2023-01-18T12:57:59.590Z,-0.03
2023-01-18T13:00:35.459Z,-0.06
2023-01-18T13:03:10.352Z,-0.07
2023-01-18T13:05:52.360Z,0.00
2023-01-18T13:08:30.427Z,-0.09
2023-01-18T13:11:08.311Z,-0.17
2023-01-18T13:13:37.525Z,-0.23
2023-01-18T13:16:18.563Z,-0.20
2023-01-18T13:18:56.810Z,-0.21
2023-01-18T13:21:40.641Z,-0.09
2023-01-18T13:24:20.827Z,0.04
2023-01-18T13:26:49.063Z,0.00
2023-01-18T13:29:24.220Z,-0.03
2023-01-18T13:31:53.123Z,0.03
2023-01-18T13:34:28.708Z,-0.04
2023-01-18T13:37:13.436Z,-0.04
2023-01-18T13:39:48.125Z,-0.09
2023-01-18T13:42:38.368Z,-0.10
2023-01-18T13:45:19.928Z,-0.02
2023-01-18T13:47:54.248Z,-0.04
2023-01-18T13:50:42.873Z,0.03
2023-01-18T13:53:31.685Z,0.04
2023-01-18T13:56:28.270Z,-0.07
2023-01-18T13:59:02.395Z,-0.03
2023-01-18T14:01:37.094Z,-0.09
2023-01-18T14:04:22.861Z,-0.03
2023-01-18T14:06:53.254Z,0.03
2023-01-18T14:09:36.214Z,0.07
2023-01-18T14:12:05.852Z,0.04
2023-01-18T14:14:36.347Z,-0.11
2023-01-18T14:17:16.817Z,-0.16
2023-01-18T14:20:28.409Z,-0.10
2023-01-18T14:23:11.453Z,-0.14
2023-01-18T14:25:54.003Z,-0.10
2023-01-18T14:28:27.027Z,-0.07
2023-01-18T14:30:59.730Z,-0.07
2023-01-18T14:33:32.677Z,0.01
2023-01-18T14:36:02.001Z,-0.07
2023-01-18T14:38:30.824Z,-0.02
2023-01-18T14:41:05.221Z,0.01
2023-01-18T14:43:36.599Z,0.01
2023-01-18T14:46:08.608Z,0.03
2023-01-18T14:48:51.630Z,0.04
2023-01-18T14:51:23.760Z,0.06
2023-01-18T14:53:55.263Z,0.03
2023-01-18T14:56:27.005Z,0.00
2023-01-18T14:58:57.559Z,0.05
2023-01-18T15:01:30.367Z,0.04
2023-01-18T15:04:01.468Z,0.06
2023-01-18T15:06:36.983Z,-0.13
2023-01-18T15:09:07.622Z,-0.24
2023-01-18T15:11:39.205Z,-0.18
2023-01-18T15:14:11.795Z,-0.17
2023-01-18T15:16:40.703Z,-0.26
2023-01-18T15:19:16.965Z,-0.28
2023-01-18T15:21:46.455Z,-0.34
2023-01-18T15:24:18.720Z,-0.37
2023-01-18T15:26:53.850Z,-0.31
2023-01-18T15:29:26.441Z,-0.42
2023-01-18T15:31:57.193Z,-0.29
2023-01-18T15:34:30.891Z,-0.30
2023-01-18T15:37:01.041Z,-0.34
2023-01-18T15:39:29.698Z,-0.37
2023-01-18T15:42:06.396Z,-0.40
2023-01-18T15:44:43.933Z,-0.37
2023-01-18T15:47:18.821Z,-0.33
2023-01-18T15:49:50.878Z,-0.24
2023-01-18T15:52:37.679Z,-0.18
2023-01-18T15:55:07.748Z,-0.24
2023-01-18T15:57:37.841Z,-0.27
2023-01-18T16:00:07.421Z,-0.29
2023-01-18T16:02:45.577Z,-0.28
2023-01-18T16:05:24.436Z,-0.36
2023-01-18T16:08:00.987Z,-0.44
2023-01-18T16:10:33.912Z,-0.40
2023-01-18T16:13:42.833Z,-0.40
2023-01-18T16:16:31.269Z,-0.34
2023-01-18T16:19:08.654Z,-0.25
2023-01-18T16:21:45.254Z,-0.32
2023-01-18T16:24:33.919Z,-0.29
2023-01-18T16:27:11.121Z,-0.27
2023-01-18T16:29:48.912Z,-0.34
2023-01-18T16:32:20.720Z,-0.41
2023-01-18T16:34:50.170Z,-0.37
2023-01-18T16:37:18.791Z,-0.31
2023-01-18T16:39:46.954Z,-0.34
2023-01-18T16:42:15.401Z,-0.34
2023-01-18T16:44:48.159Z,-0.33
2023-01-18T16:47:19.046Z,-0.27
2023-01-18T16:49:47.866Z,-0.30
2023-01-18T16:52:17.163Z,-0.31
2023-01-18T16:54:46.716Z,-0.26
2023-01-18T16:57:20.011Z,-0.34
2023-01-18T16:59:49.795Z,-0.46
2023-01-18T17:02:18.281Z,-0.42
2023-01-18T17:04:46.728Z,-0.41
2023-01-18T17:07:15.205Z,-0.37
2023-01-18T17:09:48.824Z,-0.41
2023-01-18T17:12:17.853Z,-0.38
2023-01-18T17:14:45.801Z,-0.44
2023-01-18T17:17:15.363Z,-0.48
2023-01-18T17:19:43.844Z,-0.47
2023-01-18T17:22:13.038Z,-0.50
2023-01-18T17:24:41.191Z,-0.51
2023-01-18T17:27:11.740Z,-0.48
2023-01-18T17:29:39.759Z,-0.48
2023-01-18T17:32:08.329Z,-0.46
2023-01-18T17:34:38.777Z,-0.41
2023-01-18T17:37:06.975Z,-0.49
2023-01-18T17:39:50.021Z,-0.60
2023-01-18T17:42:30.310Z,-0.59
2023-01-18T17:45:03.928Z,-0.58
2023-01-18T17:47:33.471Z,-0.54
2023-01-18T17:50:08.983Z,-0.58
2023-01-18T17:52:39.294Z,-0.46
2023-01-18T17:55:09.260Z,-0.50
2023-01-18T17:57:37.551Z,-0.59
2023-01-18T18:00:11.909Z,-0.59
2023-01-18T18:02:41.029Z,-0.57
2023-01-18T18:05:11.422Z,-0.49
2023-01-18T18:07:40.283Z,-0.49
2023-01-18T18:10:10.223Z,-0.55
2023-01-18T18:12:39.184Z,-0.60
2023-01-18T18:15:08.721Z,-0.60
2023-01-18T18:17:36.900Z,-0.57
2023-01-18T18:20:06.791Z,-0.60
2023-01-18T18:22:36.145Z,-0.56
2023-01-18T18:25:04.498Z,-0.53
2023-01-18T18:27:44.894Z,-0.59
2023-01-18T18:30:14.294Z,-0.61
2023-01-18T18:32:42.451Z,-0.61
2023-01-18T18:35:24.354Z,-0.62
2023-01-18T18:37:55.782Z,-0.56
2023-01-18T18:40:24.268Z,-0.51
2023-01-18T18:43:01.638Z,-0.54
2023-01-18T18:45:32.569Z,-0.44
2023-01-18T18:48:01.680Z,-0.50
2023-01-18T18:50:30.784Z,-0.56
2023-01-18T18:53:00.894Z,-0.57
2023-01-18T18:55:29.320Z,-0.56
2023-01-18T18:57:57.367Z,-0.53
2023-01-18T19:00:27.416Z,-0.54
2023-01-18T19:02:59.642Z,-0.60
2023-01-18T19:05:28.347Z,-0.61
2023-01-18T19:07:57.168Z,-0.48
2023-01-18T19:10:27.773Z,-0.57
2023-01-18T19:12:56.687Z,-0.46
2023-01-18T19:15:25.495Z,-0.41
2023-01-18T19:17:54.557Z,-0.42
2023-01-18T19:20:23.371Z,-0.44
2023-01-18T19:22:52.137Z,-0.45
2023-01-18T19:25:20.940Z,-0.52
2023-01-18T19:27:50.453Z,-0.48
2023-01-18T19:30:20.376Z,-0.48
2023-01-18T19:32:51.298Z,-0.46
2023-01-18T19:35:21.162Z,-0.48
2023-01-18T19:37:50.772Z,-0.43
2023-01-18T19:40:19.391Z,-0.51
2023-01-18T19:42:56.163Z,-0.51
2023-01-18T19:45:28.187Z,-0.46
2023-01-18T19:47:58.327Z,-0.44
2023-01-18T19:50:26.834Z,-0.52
2023-01-18T19:52:55.186Z,-0.48
2023-01-18T19:55:25.145Z,-0.48
2023-01-18T19:57:56.259Z,-0.41
2023-01-18T20:00:24.680Z,-0.42
2023-01-18T20:02:53.562Z,-0.43
2023-01-18T20:05:22.122Z,-0.40
2023-01-18T20:07:50.606Z,-0.40
2023-01-18T20:10:20.397Z,-0.38
2023-01-18T20:12:49.441Z,-0.42
2023-01-18T20:15:19.871Z,-0.40
2023-01-18T20:17:48.243Z,-0.40
2023-01-18T20:20:24.299Z,-0.43
2023-01-18T20:23:00.152Z,-0.39
2023-01-18T20:25:28.815Z,-0.40
2023-01-18T20:27:57.437Z,-0.42
2023-01-18T20:30:27.259Z,-0.50
2023-01-18T20:32:55.873Z,-0.39
2023-01-18T20:35:23.917Z,-0.41
2023-01-18T20:37:54.543Z,-0.43
2023-01-18T20:40:23.050Z,-0.45
2023-01-18T20:42:51.079Z,-0.42
2023-01-18T20:45:19.612Z,-0.49
2023-01-18T20:47:49.579Z,-0.45
2023-01-18T20:50:18.314Z,-0.46
2023-01-18T20:52:46.994Z,-0.52
2023-01-18T20:55:16.714Z,-0.49
2023-01-18T20:57:44.903Z,-0.53
2023-01-18T21:00:14.311Z,-0.48
2023-01-18T21:02:42.819Z,-0.42
2023-01-18T21:05:13.105Z,-0.44
2023-01-18T21:07:41.893Z,-0.44
2023-01-18T21:10:11.192Z,-0.43
2023-01-18T21:12:39.279Z,-0.48
2023-01-18T21:15:09.215Z,-0.43
2023-01-18T21:17:37.688Z,-0.49
2023-01-18T21:20:06.503Z,-0.52
2023-01-18T21:22:42.782Z,-0.57
2023-01-18T21:25:11.150Z,-0.61
2023-01-18T21:27:43.270Z,-0.61
2023-01-18T21:30:12.820Z,-0.62
2023-01-18T21:32:40.855Z,-0.67
2023-01-18T21:35:10.050Z,-0.70
2023-01-18T21:37:39.684Z,-0.67
2023-01-18T21:40:09.404Z,-0.67
2023-01-18T21:42:54.664Z,-0.71
2023-01-18T21:45:40.269Z,-0.65
2023-01-18T21:48:09.217Z,-0.57
2023-01-18T21:50:58.617Z,-0.61
2023-01-18T21:53:45.694Z,-0.64
2023-01-18T21:56:13.859Z,-0.72
2023-01-18T21:58:58.183Z,-0.62
2023-01-18T22:01:34.050Z,-0.63
2023-01-18T22:04:21.498Z,-0.55
2023-01-18T22:06:49.754Z,-0.63
2023-01-18T22:09:19.476Z,-0.66
2023-01-18T22:11:47.680Z,-0.67
2023-01-18T22:14:15.875Z,-0.75
2023-01-18T22:16:44.069Z,-0.75
2023-01-18T22:19:12.901Z,-0.75
2023-01-18T22:21:41.412Z,-0.88
2023-01-18T22:24:09.997Z,-1.00
2023-01-18T22:26:41.149Z,-1.06
2023-01-18T22:29:09.941Z,-1.12
2023-01-18T22:31:38.570Z,-1.07
2023-01-18T22:34:08.631Z,-1.30
2023-01-18T22:36:37.096Z,-1.35
2023-01-18T22:39:05.238Z,-1.32
2023-01-18T22:41:33.372Z,-1.33
2023-01-18T22:44:02.915Z,-1.46
2023-01-18T22:46:31.197Z,-1.38
2023-01-18T22:48:59.933Z,-1.53
2023-01-18T22:51:28.442Z,-1.56
2023-01-18T22:53:56.822Z,-1.58
2023-01-18T22:56:26.620Z,-1.68
2023-01-18T22:58:54.733Z,-1.76
2023-01-18T23:01:26.625Z,-1.79
2023-01-18T23:03:57.768Z,-1.71
2023-01-18T23:06:26.327Z,-1.78
2023-01-18T23:08:54.434Z,-1.77
2023-01-18T23:11:24.833Z,-1.74
2023-01-18T23:14:13.271Z,-1.84
2023-01-18T23:17:00.809Z,-1.74
2023-01-18T23:19:30.868Z,-1.93
2023-01-18T23:21:59.332Z,-2.03
2023-01-18T23:24:28.120Z,-2.17
2023-01-18T23:26:56.231Z,-2.03
2023-01-18T23:29:24.337Z,-2.08
2023-01-18T23:31:53.785Z,-2.07
2023-01-18T23:34:21.688Z,-2.16
2023-01-18T23:36:51.030Z,-2.13
2023-01-18T23:39:36.710Z,-2.05
2023-01-18T23:42:22.626Z,-2.15
2023-01-18T23:45:08.286Z,-2.06
2023-01-18T23:47:55.401Z,-2.16
2023-01-18T23:50:40.849Z,-2.19
2023-01-18T23:53:29.719Z,-2.28
2023-01-18T23:55:57.904Z,-2.35
2023-01-18T23:58:26.413Z,-2.42
